Hamilton, Ontario

8:40 AM EST on December 20, 2014 (GMT -0500)
Hamilton | Change Station
CLOSE
Current Station
Airport
Location: Hamilton Airport,
Elevation: 781 ft
Nearby Weather Stations

Elev 781 ft 43.17 °N, 79.93 °W | Updated 40 minutes ago

Partly Cloudy
Partly Cloudy
18 °F
Feels Like 12 °F
N
4
Wind Variable Wind from WNW

Today is forecast to be nearly the same temperature as yesterday.

Today
High -- | Low -- °F
--% Chance of Precip.
Yesterday
High -- | Low -- °F
Precip. -- in
7:47 AM 4:46 PM
Waning Crescent, 3% visible
Pressure 30.33 in
Visibility 15.0 miles
Clouds Few 1500 ft
Few 12000 ft
Few 23000 ft
Windchill 12 °F
Dew Point 14 °F
Humidity 86%
Rainfall 0.00 in
Snow Depth Not available.
UV 0 out of 12
Pollen Not available.
Air Quality Not available.
Flu Activity Not available.
METAR CYHM 201300Z 29003KT 15SM FEW015 FEW120 FEW230 M08/M10 A3029 RMK SC1AC1CI1 SC TR AC TR SLP271

More Conditions Fewer Conditions

Pressure 30.33 in
Visibility 15.0 miles
Clouds Few 1500 ft
Few 12000 ft
Few 23000 ft
Windchill 12 °F
Dew Point 14 °F
Humidity 86%
Rainfall 0.00 in
Snow Depth Not available.
UV 0 out of 12
Pollen Not available.
Air Quality Not available.
Flu Activity Not available.
METAR CYHM 201300Z 29003KT 15SM FEW015 FEW120 FEW230 M08/M10 A3029 RMK SC1AC1CI1 SC TR AC TR SLP271

More Conditions Fewer Conditions

10-Day Weather Forecast

Almanac

Astronomy

Dec. 20, 2014 Rise Set
Actual Time
Civil Twilight
Nautical Twilight
Astronomical Twilight
Moon
Length of Visible Light
Length of Day
Tomorrow will be .
, % of the Moon is Illuminated

Today's Extremes

Country Highs Country Lows

Community

WunderPhotos

Upload Photos

1,779,171 photos uploaded!

WunderBlogs® & News

Nearby

Air Quality

  Air Quality AQ Index Pollutant
Not available.

Snow Depth

Station Depth Elevation

Earthquake Activity

City Distance Mag. Time & Date
Minimum magnitude displayed is 2.5.

Coastal Water Temperatures

Place Temperature

Nearby Weather Stations